Time;durP1;ratioP1;P1;durP2;ratioP2;P2;SDS_P1;SDS_P2;PMS_P1;PMS_P2;Temp;Humidity;BMP_temperature;BMP_pressure;BME280_temperature;BME280_humidity;BME280_pressure;Samples;Min_cycle;Max_cycle;Signal;HPM_P1;HPM_P2
2022/09/26 00:08:13;;;;;;;;;;;;;;;10.96;100.00;100566.75;20974082;28;19920;-62
2022/09/26 00:18:35;;;;;;;;;;;;;;;10.81;100.00;100549.56;20961189;28;19998;-63
2022/09/26 00:28:56;;;;;;;;;;;;;;;11.04;100.00;100535.78;20970218;28;20001;-62
2022/09/26 00:39:18;;;;;;;;;;;;;;;11.07;100.00;100525.09;20967821;28;19974;-62
2022/09/26 00:49:43;;;;;;;;;;;;;;;11.00;100.00;100507.38;20960811;28;19928;-62
2022/09/26 01:00:06;;;;;;;;;;;;;;;11.11;100.00;100497.84;20966440;28;20491;-62
2022/09/26 01:10:28;;;;;;;;;;;;;;;11.17;100.00;100483.53;20959730;28;19920;-63
2022/09/26 01:21:12;;;;;;;;;;;;;;;11.04;100.00;100454.91;20957440;28;19920;-63
2022/09/26 01:43:06;;;;;;;;;;;;;;;11.18;100.00;100413.00;20930428;28;19920;-62
2022/09/26 01:53:33;;;;;;;;;;;;;;;11.19;100.00;100403.38;20964802;28;20716;-63
2022/09/26 02:03:57;;;;;;;;;;;;;;;11.24;100.00;100391.66;20963791;28;19995;-62
2022/09/26 02:14:21;;;;;;;;;;;;;;;11.10;100.00;100368.38;20961928;28;19928;-62
2022/09/26 02:24:42;;;;;;;;;;;;;;;11.17;100.00;100343.50;20957786;28;19924;-63
2022/09/26 02:35:52;;;;;;;;;;;;;;;11.20;100.00;100319.81;20960157;28;19974;-62
2022/09/26 02:46:00;;;;;;;;;;;;;;;11.35;100.00;100305.59;20959118;28;20601;-63
2022/09/26 02:56:40;;;;;;;;;;;;;;;11.32;100.00;100289.31;20945003;28;20296;-63
2022/09/26 03:07:08;;;;;;;;;;;;;;;11.27;100.00;100268.81;20959352;28;19921;-63
2022/09/26 03:17:30;;;;;;;;;;;;;;;11.42;100.00;100248.56;20958652;28;19924;-64
2022/09/26 03:27:52;;;;;;;;;;;;;;;11.48;100.00;100233.25;20962406;28;19921;-63
2022/09/26 03:38:13;;;;;;;;;;;;;;;11.54;99.96;100214.50;20960093;28;19920;-64
2022/09/26 03:48:35;;;;;;;;;;;;;;;11.54;99.44;100206.69;20955464;28;20346;-64
2022/09/26 03:58:56;;;;;;;;;;;;;;;11.61;98.95;100187.00;20956253;28;19924;-64
2022/09/26 04:09:18;;;;;;;;;;;;;;;11.62;98.45;100157.31;20968482;28;19925;-63
2022/09/26 04:19:39;;;;;;;;;;;;;;;11.63;99.78;100153.75;20968772;28;20539;-64
2022/09/26 04:30:01;;;;;;;;;;;;;;;11.64;99.47;100134.53;20972516;28;20423;-64
2022/09/26 04:40:22;;;;;;;;;;;;;;;11.69;100.00;100132.38;20985627;28;19924;-63
2022/09/26 04:50:44;;;;;;;;;;;;;;;11.46;100.00;100115.09;20960532;28;19924;-64
2022/09/26 05:01:14;;;;;;;;;;;;;;;11.51;100.00;100105.09;20967933;28;19924;-63
2022/09/26 05:11:35;;;;;;;;;;;;;;;11.35;100.00;100086.41;20963975;28;20043;-64
2022/09/26 05:21:56;;;;;;;;;;;;;;;11.36;100.00;100067.16;20959894;28;20561;-64
2022/09/26 05:32:19;;;;;;;;;;;;;;;11.39;100.00;100072.16;20960404;28;20054;-64
2022/09/26 05:42:41;;;;;;;;;;;;;;;11.39;100.00;100059.09;20991916;28;19928;-64
2022/09/26 05:53:02;;;;;;;;;;;;;;;11.36;100.00;100046.28;20965424;28;19951;-64
2022/09/26 06:03:24;;;;;;;;;;;;;;;11.45;100.00;100029.06;20962438;28;19932;-64
2022/09/26 06:13:45;;;;;;;;;;;;;;;11.34;100.00;100016.91;20952894;28;19924;-63
2022/09/26 06:24:07;;;;;;;13.20;5.30;;;;;;;11.50;100.00;100006.84;20957248;28;19920;-65
2022/09/26 06:34:29;;;;;;;11.50;5.20;;;;;;;11.55;100.00;99989.09;20959760;28;20049;-64
2022/09/26 06:44:50;;;;;;;;;;;;;;;11.60;100.00;99977.31;20962694;28;20300;-64
2022/09/26 06:55:12;;;;;;;;;;;;;;;11.69;100.00;99947.00;20959670;28;19970;-64
2022/09/26 07:05:33;;;;;;;;;;;;;;;11.81;100.00;99938.16;20957395;28;19975;-64
2022/09/26 07:15:57;;;;;;;;;;;;;;;11.89;100.00;99914.84;20958277;28;19925;-63
2022/09/26 07:26:18;;;;;;;;;;;;;;;12.13;100.00;99911.00;20956335;28;19921;-63
2022/09/26 07:36:40;;;;;;;7.43;4.07;;;;;;;12.13;100.00;99904.91;20965071;28;20495;-64
2022/09/26 07:57:43;;;;;;;7.37;3.67;;;;;;;12.24;100.00;99889.13;20963262;28;20826;-65
2022/09/26 08:08:05;;;;;;;5.35;2.97;;;;;;;12.28;99.25;99901.00;20967825;28;20036;-64
2022/09/26 08:18:26;;;;;;;;;;;;;;;12.23;97.06;99888.31;20969007;28;20489;-63
2022/09/26 08:28:48;;;;;;;;;;;;;;;12.23;98.24;99877.03;20968711;28;19924;-64
2022/09/26 08:39:09;;;;;;;;;;;;;;;12.21;97.83;99866.72;20961203;28;19921;-63
2022/09/26 08:49:31;;;;;;;6.65;3.58;;;;;;;12.30;100.00;99852.84;20968749;28;20681;-64
2022/09/26 08:59:53;;;;;;;;;;;;;;;12.36;99.54;99848.91;20969428;28;20083;-64
2022/09/26 09:10:16;;;;;;;;;;;;;;;12.38;99.28;99841.72;20970100;28;19920;-63
2022/09/26 09:20:51;;;;;;;;;;;;;;;12.40;99.58;99839.81;20967038;28;19973;-64
2022/09/26 09:31:14;;;;;;;;;;;;;;;12.17;100.00;99825.31;20966491;28;19920;-63
2022/09/26 09:41:35;;;;;;;;;;;;;;;12.34;100.00;99807.19;20965635;28;19974;-63
2022/09/26 09:52:00;;;;;;;;;;;;;;;12.32;100.00;99788.22;20962986;28;19982;-63
2022/09/26 10:02:30;;;;;;;;;;;;;;;12.30;100.00;99760.56;20960028;28;19973;-64
2022/09/26 10:12:52;;;;;;;;;;;;;;;12.24;100.00;99743.66;20955701;28;20005;-64
2022/09/26 10:23:17;;;;;;;;;;;;;;;12.28;100.00;99715.47;20960746;28;19927;-63
2022/09/26 10:33:43;;;;;;;;;;;;;;;12.65;100.00;99686.72;20959016;28;19924;-64
2022/09/26 10:44:06;;;;;;;;;;;;;;;12.90;100.00;99675.69;20961387;28;19920;-64
2022/09/26 10:54:41;;;;;;;;;;;;;;;12.80;100.00;99653.09;20957621;28;19924;-63
2022/09/26 11:15:59;;;;;;;;;;;;;;;12.63;100.00;99667.72;20946836;28;20336;-63
2022/09/26 11:26:33;;;;;;;;;;;;;;;12.62;100.00;99666.06;20966019;28;19920;-63
2022/09/26 11:37:07;;;;;;;;;;;;;;;12.31;100.00;99670.75;20976058;28;20362;-63
2022/09/26 11:47:38;;;;;;;;;;;;;;;12.37;100.00;99649.31;20970904;28;19979;-63
2022/09/26 11:58:02;;;;;;;;;;;;;;;12.27;100.00;99648.47;20974998;28;20538;-63
2022/09/26 12:08:30;;;;;;;;;;;;;;;12.19;100.00;99627.47;20972905;28;19932;-63
2022/09/26 12:19:15;;;;;;;;;;;;;;;12.03;100.00;99601.06;20966878;28;19951;-63
2022/09/26 12:29:58;;;;;;;;;;;;;;;12.02;100.00;99581.94;20969933;28;19930;-63
2022/09/26 12:40:29;;;;;;;;;;;;;;;12.13;100.00;99567.91;20967568;28;19920;-63
2022/09/26 12:51:09;;;;;;;;;;;;;;;12.13;100.00;99567.91;20968856;28;19924;-63
2022/09/26 13:01:36;;;;;;;;;;;;;;;12.23;100.00;99558.25;20957672;28;19924;-62
2022/09/26 13:12:17;;;;;;;;;;;;;;;12.15;100.00;99532.84;20992093;28;19934;-63
2022/09/26 13:22:44;;;;;;;;;;;;;;;12.04;100.00;99532.19;20961162;28;19974;-62
2022/09/26 13:33:06;;;;;;;;;;;;;;;11.84;100.00;99522.72;20980123;28;19921;-63
2022/09/26 13:43:43;;;;;;;;;;;;;;;11.95;100.00;99522.56;20954834;28;20407;-63
2022/09/26 13:54:46;;;;;;;4.18;3.10;;;;;;;11.93;100.00;99499.22;20960916;28;19920;-63
2022/09/26 14:05:17;;;;;;;4.32;2.90;;;;;;;11.92;100.00;99481.06;20961997;28;20532;-63
2022/09/26 14:15:47;;;;;;;6.32;3.17;;;;;;;12.05;100.00;99471.16;20990460;28;20113;-65
2022/09/26 14:26:10;;;;;;;3.85;3.45;;;;;;;11.93;100.00;99467.06;20946157;28;20044;-64
2022/09/26 14:36:34;;;;;;;4.30;3.58;;;;;;;11.91;100.00;99451.50;20942654;28;20500;-63
2022/09/26 14:46:55;;;;;;;5.40;3.90;;;;;;;11.84;100.00;99436.53;20938330;28;20082;-63
2022/09/26 14:57:27;;;;;;;6.63;4.10;;;;;;;11.91;100.00;99432.44;20949518;28;20060;-63
2022/09/26 15:07:51;;;;;;;8.48;4.60;;;;;;;12.05;100.00;99414.50;20943421;28;20070;-63
2022/09/26 15:18:22;;;;;;;6.07;4.93;;;;;;;12.07;100.00;99406.53;20943467;28;20056;-63
2022/09/26 15:28:47;;;;;;;5.00;4.30;;;;;;;11.98;100.00;99382.09;20946444;28;20394;-63
2022/09/26 15:39:30;;;;;;;4.97;3.80;;;;;;;12.01;100.00;99376.56;20925665;28;20562;-64
2022/09/26 15:50:08;;;;;;;4.82;3.40;;;;;;;12.07;100.00;99364.75;20941762;28;20041;-63
2022/09/26 16:00:34;;;;;;;3.25;2.95;;;;;;;12.19;100.00;99348.72;20949042;28;20041;-64
2022/09/26 16:10:58;;;;;;;5.45;3.10;;;;;;;12.10;100.00;99344.38;20959487;28;20094;-63
2022/09/26 16:21:32;;;;;;;3.15;2.85;;;;;;;12.12;100.00;99339.00;20955066;28;20102;-64
2022/09/26 16:31:54;;;;;;;2.92;2.58;;;;;;;12.18;100.00;99330.59;20956810;28;20080;-64
2022/09/26 16:42:16;;;;;;;3.65;2.88;;;;;;;12.17;100.00;99328.94;20955935;28;20585;-64
2022/09/26 16:52:38;;;;;;;6.90;2.72;;;;;;;12.14;100.00;99324.84;20929388;28;20037;-64
2022/09/26 17:03:01;;;;;;;2.65;2.38;;;;;;;12.15;100.00;99330.88;20945646;28;20120;-64
2022/09/26 17:13:25;;;;;;;3.13;2.50;;;;;;;12.01;100.00;99318.28;20952732;28;20067;-65
2022/09/26 17:23:47;;;;;;;2.70;2.50;;;;;;;12.12;100.00;99316.31;20948456;28;20041;-64
2022/09/26 17:34:11;;;;;;;3.17;2.78;;;;;;;12.12;100.00;99312.88;20951346;28;20041;-64
2022/09/26 17:44:35;;;;;;;4.35;3.13;;;;;;;12.20;100.00;99297.31;20937445;28;20123;-64
2022/09/26 17:55:01;;;;;;;5.50;3.92;;;;;;;12.10;100.00;99291.28;20952665;28;20052;-64
2022/09/26 18:05:25;;;;;;;4.70;4.30;;;;;;;12.16;100.00;99285.50;20944046;28;20045;-64
2022/09/26 18:15:47;;;;;;;4.60;3.85;;;;;;;12.15;100.00;99281.25;20964421;28;20420;-63
2022/09/26 18:26:21;;;;;;;4.82;4.43;;;;;;;12.12;100.00;99278.91;20949740;28;20036;-64
2022/09/26 18:36:43;;;;;;;5.43;4.93;;;;;;;12.07;100.00;99278.56;20953817;28;20048;-64
2022/09/26 18:47:12;;;;;;;5.40;4.90;;;;;;;12.16;100.00;99267.22;20955246;28;20049;-64
2022/09/26 19:08:34;;;;;;;;;;;;;;;12.07;100.00;99255.03;20778834;28;20056;-64
2022/09/26 19:18:56;;;;;;;;;;;;;;;12.13;100.00;99254.44;20959102;28;20425;-63
2022/09/26 19:29:27;;;;;;;;;;;;;;;12.08;100.00;99241.03;20965598;28;19924;-64
2022/09/26 19:39:48;;;;;;;;;;;;;;;12.00;100.00;99233.06;20977497;28;19974;-64
2022/09/26 19:50:21;;;;;;;;;;;;;;;12.16;100.00;99230.66;20972725;28;19928;-63
2022/09/26 20:00:43;;;;;;;;;;;;;;;12.11;100.00;99225.03;20971920;28;19982;-64
2022/09/26 20:11:04;;;;;;;;;;;;;;;12.16;100.00;99238.47;20975770;28;20380;-63
2022/09/26 20:21:27;;;;;;;;;;;;;;;12.19;100.00;99225.94;20967871;28;19943;-63
2022/09/26 20:31:48;;;;;;;;;;;;;;;12.14;100.00;99211.69;20973498;28;19928;-64
2022/09/26 20:42:14;;;;;;;;;;;;;;;12.13;100.00;99202.19;20970504;28;19924;-64
2022/09/26 20:52:36;;;;;;;;;;;;;;;12.15;100.00;99200.25;20970690;28;19924;-64
2022/09/26 21:02:57;;;;;;;;;;;;;;;12.14;100.00;99182.94;20968804;28;19924;-63
2022/09/26 21:13:19;;;;;;;;;;;;;;;12.19;100.00;99180.72;20968581;28;19970;-64
2022/09/26 21:23:41;;;;;;;;;;;;;;;12.14;100.00;99191.63;20965476;28;19974;-63
2022/09/26 21:34:04;;;;;;;;;;;;;;;12.15;100.00;99187.19;20967484;28;20343;-63
2022/09/26 21:44:29;;;;;;;;;;;;;;;12.23;100.00;99176.81;20987244;28;19920;-63
2022/09/26 21:54:50;;;;;;;;;;;;;;;12.12;100.00;99164.81;20964074;28;19974;-65
2022/09/26 22:05:15;;;;;;;;;;;;;;;12.24;100.00;99163.63;20964372;28;19975;-63
2022/09/26 22:15:37;;;;;;;;;;;;;;;12.20;100.00;99159.66;20962429;28;20090;-63
2022/09/26 22:25:58;;;;;;;;;;;;;;;12.01;100.00;99143.31;20957478;28;20427;-63
2022/09/26 22:36:19;;;;;;;;;;;;;;;12.06;100.00;99134.06;20960924;28;19920;-63
2022/09/26 22:46:41;;;;;;;;;;;;;;;12.19;100.00;99115.41;20994738;28;20308;-64
2022/09/26 22:57:02;;;;;;;;;;;;;;;12.10;100.00;99113.69;20961782;28;19982;-63
2022/09/26 23:07:24;;;;;;;;;;;;;;;11.90;100.00;99109.59;20953301;28;19924;-64
2022/09/26 23:17:46;;;;;;;;;;;;;;;12.02;100.00;99106.59;20959446;28;19925;-64
2022/09/26 23:28:07;;;;;;;;;;;;;;;11.97;100.00;99102.78;20954427;28;19920;-63
2022/09/26 23:38:29;;;;;;;;;;;;;;;12.01;100.00;99098.94;20958580;28;19924;-63
2022/09/26 23:48:50;;;;;;;;;;;;;;;11.82;100.00;99099.06;20959072;28;19924;-66
2022/09/26 23:59:12;;;;;;;;;;;;;;;11.75;100.00;99093.63;20961469;28;19970;-64
